Mesquite, Nevada Weather observations

Data are for observation ending at time listed.
 Day   Time    Ave.   Ave.  Ave.  Vector   Max.   Stn.    Total    Solar   Ave.  
  of    of     Air    Rel.  Wind   Wind    Wind   Baro.  Precip.   Rad.    Soil  
Year   Day     Temp.  Hum.  Speed  Dir.    Gust   Pres.                    Temp. 
2014   (PST)    F      %     mph   deg.    mph     mb.     in.     W/m2     F   
------------------------------------------------------------------------------
 273   13:30   83.5    22    2.7   193      6.3   946.0    0.00     505    89.8
 273   13:40   82.9    22    3.1   235      6.9   945.8    0.00     489    90.3
 273   13:50   83.3    21    3.3   164      5.9   945.6    0.00     474    90.8
 273   14:00   83.8    19    2.6   186      7.7   945.5    0.00     457    91.2
 273   14:10   83.8    18    2.9   245      7.9   945.3    0.00     435    91.6
 273   14:20   84.0    18    3.5   214      6.7   945.1    0.00     420    91.9
 273   14:30   83.8    19    4.2   251      7.3   945.1    0.00     397    92.2
 273   14:40   83.6    19    3.5   246      9.0   945.0    0.00     379    92.5
 273   14:50   84.1    19    2.9   267      6.8   944.9    0.00     358    92.7
 273   15:00   83.6    19    4.2   247      7.4   944.7    0.00     334    92.9
 273   15:10   84.7    19    2.7   251      8.3   944.6    0.00     312    93.1
 273   15:20   84.9    18    3.9   232      8.2   944.6    0.00     288    93.2
 273   15:30   85.5    17    3.6   252      9.5   944.5    0.00     264    93.3
 273   15:40   85.0    18    3.8   241      9.5   944.3    0.00     239    93.4
 273   15:50   85.1    17    4.1   225      7.7   944.3    0.00     213    93.4
 273   16:00   85.2    17    2.8   211      7.5   944.2    0.00     188    93.4
 273   16:10   85.2    18    2.3   210      5.6   944.1    0.00     163    93.3
 273   16:20   85.6    18    2.1   223      5.8   944.1    0.00     138    93.3
 273   16:30   85.5    18    2.0   202      5.3   944.0    0.00     114    93.2
 273   16:40   84.7    18    3.2   232      5.8   944.0    0.00      91    93.0
 273   16:50   84.5    19    2.0   216      5.0   944.0    0.00      66    92.8
 273   17:00   83.0    20    2.1   235      5.0   943.9    0.00      30    92.6
 273   17:10   81.9    21    2.6   290      4.3   943.9    0.00      10    92.1
 273   17:20   81.1    23    2.3   292      4.2   944.0    0.00       7    91.7
 273   17:30   80.6    22    2.3   286      4.4   944.0    0.00       3    91.3
 273   17:40   80.1    24    0.8   311      2.5   944.0    0.00       1    90.9
 273   17:50   78.5    26    2.4    58      3.4   944.0    0.00       0    90.4
 273   18:00   75.8    34    3.4    53      4.1   944.0    0.00       0    90.0
 273   18:10   75.0    33    2.8    58      3.5   944.0    0.00       0    89.6
 273   18:20   75.2    31    2.4    62      3.0   943.9    0.00       0    89.2
 273   18:30   75.0    31    2.9    42      3.5   943.9    0.00       0    88.8
 273   18:40   75.0    31    3.0    53      4.2   943.9    0.00       0    88.5
 273   18:50   74.6    32    4.0    84      5.2   943.9    0.00       0    88.1
 273   19:00   72.3    40    4.0    81      5.3   944.0    0.00       0    87.8
 273   19:10   72.1    40    3.0    94      4.2   944.0    0.00       0    87.5
 273   19:20   73.3    38    3.3   123      4.6   944.0    0.00       0    87.2
 273   19:30   71.2    46    4.3    91      5.3   944.0    0.00       0    86.9
 273   19:40   69.5    50    2.8    65      4.7   944.1    0.00       0    86.6
 273   19:50   70.5    45    2.3    52      4.3   944.1    0.00       0    86.3
 273   20:00   69.6    49    4.1    35      5.0   944.1    0.00       0    86.0
 273   20:10   70.2    44    3.5    10      4.3   944.0    0.00       0    85.7
 273   20:20   70.5    43    4.1    24      5.0   944.0    0.00       0    85.5
 273   20:30   71.0    40    3.3    26      4.5   944.0    0.00       0    85.2
 273   20:40   69.3    46    3.6    46      5.6   944.0    0.00       0    85.0
 273   20:50   68.9    44    4.6    29      7.5   944.0    0.00       0    84.8
 273   21:00   69.9    42    2.2   233      5.2   944.1    0.00       0    84.5
 273   21:10   69.1    46    2.9   264      4.7   944.1    0.00       0    84.3
 273   21:20   69.3    44    3.2   260      4.6   944.0    0.00       0    84.1
 273   21:30   69.4    45    2.3   285      3.5   944.0    0.00       0    83.8
 273   21:40   68.9    47    1.4   249      3.3   944.0    0.00       0    83.6
 273   21:50   67.6    51    3.4   136      5.8   944.0    0.00       0    83.4
 273   22:00   65.9    57    4.6   116      6.1   943.9    0.00       0    83.2
 273   22:10   65.2    59    4.4    97      6.1   943.9    0.00       0    82.9
 273   22:20   64.9    60    1.8    72      3.2   944.0    0.00       0    82.8
 273   22:30   65.0    58    1.6    47      3.7   944.0    0.00       0    82.6
 273   22:40   65.1    58    3.5    40      4.8   944.0    0.00       0    82.4
 273   22:50   65.3    56    4.1    42      6.6   944.0    0.00       0    82.2
 273   23:00   66.1    51    4.3    48      6.9   944.0    0.00       0    82.0
 273   23:10   66.3    51    4.3    68      6.1   944.0    0.00       0    81.8
 273   23:20   64.8    57    3.3    80      5.0   944.1    0.00       0    81.6
 273   23:30   64.2    58    2.4   111      4.2   944.2    0.00       0    81.4
 273   23:40   64.4    57    3.3   108      4.9   944.2    0.00       0    81.2
 273   23:50   64.5    58    3.2   109      5.0   944.0    0.00       0    81.1
 274    0:00   64.4    58    1.9    73      3.3   944.0    0.00       0    80.9
 274    0:10   64.2    59    3.3    52      4.4   944.0    0.00       0    80.7
 274    0:20   63.6    59    3.4    52      5.0   944.1    0.00       0    80.5
 274    0:30   63.6    58    1.7   336      2.3   944.1    0.00       0    80.4
 274    0:40   64.5    55    0.5   334      1.8   944.1    0.00       0    80.2
 274    0:50   65.1    54    1.3    29      3.1   944.1    0.00       0    80.1
 274    1:00   65.2    53    1.7   339      4.5   944.2    0.00       0    80.0
 274    1:10   64.1    59    2.4   129      4.1   944.2    0.00       0    79.8
 274    1:20   62.4    64    3.6   116      4.6   944.1    0.00       0    79.6
 274    1:30   62.1    65    3.4   108      4.2   944.1    0.00       0    79.5
 274    1:40   61.8    67    3.2    98      4.2   944.0    0.00       0    79.4
 274    1:50   61.0    70    2.8    48      4.3   944.1    0.00       0    79.2
 274    2:00   61.9    65    2.0    94      3.8   944.0    0.00       0    79.0
 274    2:10   61.8    66    4.1   107      5.4   943.9    0.00       0    78.9
 274    2:20   60.1    71    4.3    80      5.6   944.1    0.00       0    78.7
 274    2:30   59.7    72    3.1    46      4.5   944.1    0.00       0    78.6
 274    2:40   60.3    69    1.8    31      2.9   944.1    0.00       0    78.5
 274    2:50   61.4    64    3.1     5      4.4   944.2    0.00       0    78.3
 274    3:00   64.0    53    4.5     9      8.4   944.4    0.00       0    78.2
 274    3:10   64.3    53    2.0   329      3.8   944.6    0.00       0    78.1
 274    3:20   63.7    56    0.6   339      1.7   944.7    0.00       0    78.0
 274    3:30   63.5    56    2.4   132      5.0   944.9    0.00       0    77.8
 274    3:40   60.9    67    5.1   134      7.8   945.1    0.00       0    77.7
 274    3:50   59.5    71    6.2   116      9.1   945.3    0.00       0    77.6
 274    4:00   59.9    70    4.1   112      5.6   945.6    0.00       0    77.4
 274    4:10   60.9    65    4.6   132      7.2   945.7    0.00       0    77.3
 274    4:20   62.3    60    2.3   126      4.8   945.7    0.00       0    77.2
 274    4:30   62.5    60    1.7    62      3.7   945.8    0.00       0    77.1
 274    4:40   63.3    56    3.5    58      9.7   945.9    0.00       0    77.0
 274    4:50   64.8    53    2.9   342      5.8   945.9    0.00       0    76.8
 274    5:00   64.3    54    3.2   288      6.0   946.0    0.00       0    76.7
 274    5:10   63.8    56    5.0   276      8.1   946.1    0.00       0    76.6
 274    5:20   63.0    59    2.8   206      6.6   946.3    0.00       0    76.5
 274    5:30   61.9    61    3.2   161      6.1   946.5    0.00       1    76.4
 274    5:40   63.2    58    3.6    50      8.0   946.6    0.00       3    76.2
 274    5:50   61.6    63    4.9    50      7.7   946.8    0.00       6    76.1
 274    6:00   61.7    61    4.7    12      5.9   947.0    0.00      10    76.0
 274    6:10   62.6    58    4.8    13      6.4   947.0    0.00      19    75.9
 274    6:20   64.8    54    3.4   358      5.8   947.2    0.00      67    75.8
 274    6:30   65.3    55    2.0   132      3.6   947.4    0.00      90    75.8
 274    6:40   67.7    49    2.4    20      5.4   947.5    0.00      94    75.7
 274    6:50   69.2    49    2.5   108      4.3   947.7    0.00     140    75.6
 274    7:00   66.3    57    2.6   144      3.7   947.9    0.00     164    75.5
 274    7:10   67.6    54    2.1   142      4.4   948.1    0.00     185    75.5
 274    7:20   68.3    52    4.0   138      5.5   948.4    0.00     213    75.4
 274    7:30   68.5    51    4.4   111      5.8   948.6    0.00     238    75.3
 274    7:40   68.8    52    5.4   110      7.5   948.7    0.00     263    75.3
 274    7:50   69.7    49    6.4   113      8.0   948.9    0.00     288    75.3
 274    8:00   71.8    44    5.1   122      9.2   949.0    0.00     315    75.4
 274    8:10   73.7    42    3.2   157      5.6   949.1    0.00     337    75.4
 274    8:20   74.0    40    4.8   154     10.4   949.2    0.00     360    75.4
 274    8:30   74.5    38    5.0   355      9.3   949.3    0.00     381    75.5
 274    8:40   74.9    35    4.7   315      9.9   949.4    0.00     400    75.6
 274    8:50   76.3    32    9.7   348     15.8   949.5    0.00     420    75.7
 274    9:00   76.4    32   10.1   348     15.3   949.6    0.00     442    75.8
 274    9:10   76.6    32   10.8   350     17.6   949.8    0.00     456    76.0
 274    9:20   76.5    31   10.4   338     16.5   949.8    0.00     472    76.2
 274    9:30   76.8    30   11.4   340     18.3   949.8    0.00     490    76.4
 274    9:40   76.7    30   10.5   338     20.5   949.8    0.00     509    76.7
 274    9:50   77.4    29   11.1   347     16.4   949.9    0.00     520    77.0
 274   10:00   77.6    28    9.9   343     17.8   949.9    0.00     530    77.4
 274   10:10   77.8    26   12.0   348     19.2   950.0    0.00     538    77.8
 274   10:20   77.7    25   12.1   349     18.3   949.9    0.00     551    78.3
 274   10:30   77.6    24   11.7   350     17.9   949.8    0.00     560    78.9
 274   10:40   77.9    24   10.1   354     17.8   949.9    0.00     567    79.4
 274   10:50   77.8    25   10.0   339     16.6   949.8    0.00     573    80.0
 274   11:00   78.2    25   11.5     2     17.5   949.7    0.00     578    80.7
 274   11:10   78.4    25    8.8   334     15.7   949.7    0.00     582    81.4
 274   11:20   78.5    25    8.9   327     14.9   949.7    0.00     583    82.1
 274   11:30   78.2    24    8.2   331     16.0   949.6    0.00     586    82.8
 274   11:40   78.5    24   11.6   329     20.0   949.5    0.00     591    83.5
 274   11:50   78.2    23    8.5   352     14.8   949.6    0.00     590    84.2
 274   12:00   79.2    23    8.0    10     14.2   949.4    0.00     587    84.8
 274   12:10   79.2    22    7.1     6     13.9   949.4    0.00     582    85.5
 274   12:20   79.4    22    6.4    14     15.8   949.2    0.00     576    86.2
 274   12:30   79.2    22    6.1    24     11.5   949.1    0.00     571    86.9
 274   12:40   80.0    21    8.3    10     15.6   949.1    0.00     563    87.5
 274   12:50   79.9    21    9.6    15     18.0   949.0    0.00     554    88.1
 274   13:00   80.0    21    9.4    14     16.4   949.0    0.00     543    88.7
 274   13:10   79.5    20    7.9     3     15.9   949.0    0.00     531    89.2
 274   13:20   79.5    20    7.4     8     14.6   948.9    0.00     519    89.7

Return to Mesquite, Nevada graphs page.


Western Regional Climate Center,wrcc@dri.edu